createdAt,value
2018-04-14T00:00:18.731Z,0
2018-04-14T00:01:20.116Z,0
2018-04-14T00:02:21.507Z,0
2018-04-14T00:03:22.896Z,0
2018-04-14T00:04:24.282Z,0
2018-04-14T00:05:25.681Z,0
2018-04-14T00:06:27.068Z,0
2018-04-14T00:07:28.457Z,0
2018-04-14T00:08:29.854Z,0
2018-04-14T00:09:31.229Z,0
2018-04-14T00:10:32.621Z,0
2018-04-14T00:11:34.013Z,0
2018-04-14T00:12:35.402Z,0
2018-04-14T00:13:36.793Z,0
2018-04-14T00:14:38.178Z,0
2018-04-14T00:15:39.565Z,0
2018-04-14T00:16:40.954Z,0
2018-04-14T00:17:42.344Z,0
2018-04-14T00:18:43.810Z,0
2018-04-14T00:19:45.202Z,0
2018-04-14T00:20:46.594Z,0
2018-04-14T00:21:47.981Z,0
2018-04-14T00:22:49.366Z,0
2018-04-14T00:23:50.756Z,0
2018-04-14T00:24:52.147Z,0
2018-04-14T00:25:53.544Z,0
2018-04-14T00:26:54.927Z,0
2018-04-14T00:27:56.319Z,0
2018-04-14T00:28:57.707Z,0
2018-04-14T00:29:59.094Z,0
2018-04-14T00:31:00.484Z,0
2018-04-14T00:32:01.872Z,0
2018-04-14T00:33:03.260Z,0
2018-04-14T00:34:04.653Z,0
2018-04-14T00:35:06.043Z,0
2018-04-14T00:36:07.428Z,0
2018-04-14T00:37:08.814Z,0
2018-04-14T00:38:10.202Z,0
2018-04-14T00:39:11.592Z,0
2018-04-14T00:40:12.979Z,0
2018-04-14T00:41:14.367Z,0
2018-04-14T00:42:15.759Z,0
2018-04-14T00:43:17.144Z,0
2018-04-14T00:44:18.531Z,0
2018-04-14T00:45:19.973Z,0
2018-04-14T00:46:21.368Z,0
2018-04-14T00:47:22.755Z,0
2018-04-14T00:48:24.143Z,0
2018-04-14T00:49:25.537Z,0
2018-04-14T00:50:26.922Z,0
2018-04-14T00:51:28.311Z,0
2018-04-14T00:52:29.705Z,0
2018-04-14T00:53:31.088Z,0
2018-04-14T00:54:32.480Z,0
2018-04-14T00:55:33.868Z,0
2018-04-14T00:56:35.257Z,0
2018-04-14T00:57:36.645Z,0
2018-04-14T00:58:38.032Z,0
2018-04-14T00:59:39.422Z,0
2018-04-14T01:00:40.806Z,0
2018-04-14T01:01:42.198Z,0
2018-04-14T01:02:43.590Z,0
2018-04-14T01:03:44.983Z,0
2018-04-14T01:04:46.380Z,0
2018-04-14T01:05:47.757Z,0
2018-04-14T01:06:49.143Z,0
2018-04-14T01:07:50.531Z,0
2018-04-14T01:08:51.922Z,0
2018-04-14T01:09:53.312Z,0
2018-04-14T01:10:54.702Z,0
2018-04-14T01:11:56.091Z,0
2018-04-14T01:12:57.478Z,0
2018-04-14T01:13:58.866Z,0
2018-04-14T01:15:00.254Z,0
2018-04-14T01:16:01.644Z,0
2018-04-14T01:17:03.033Z,0
2018-04-14T01:18:04.425Z,0
2018-04-14T01:19:05.811Z,0
2018-04-14T01:20:07.202Z,0
2018-04-14T01:21:08.588Z,0
2018-04-14T01:22:09.973Z,0
2018-04-14T01:23:11.362Z,0
2018-04-14T01:24:12.752Z,0
2018-04-14T01:25:14.143Z,0
2018-04-14T01:26:15.534Z,0
2018-04-14T01:27:16.917Z,0
2018-04-14T01:28:18.303Z,0
2018-04-14T01:29:19.707Z,0
2018-04-14T01:30:21.079Z,0
2018-04-14T01:31:22.467Z,0
2018-04-14T01:32:23.867Z,0
2018-04-14T01:33:25.241Z,0
2018-04-14T01:34:26.628Z,0
2018-04-14T01:35:28.096Z,0
2018-04-14T01:36:29.533Z,0
2018-04-14T01:37:30.925Z,0
2018-04-14T01:38:32.313Z,0
2018-04-14T01:39:33.702Z,0
2018-04-14T01:40:35.086Z,0
2018-04-14T01:41:36.471Z,0
2018-04-14T01:42:37.861Z,0
2018-04-14T01:43:39.732Z,0
2018-04-14T01:44:41.151Z,0
2018-04-14T01:45:42.532Z,0
2018-04-14T01:46:43.920Z,0
2018-04-14T01:47:45.313Z,0
2018-04-14T01:48:46.691Z,0
2018-04-14T01:49:48.079Z,0
2018-04-14T01:50:49.466Z,0
2018-04-14T01:51:50.857Z,0
2018-04-14T01:52:52.254Z,0
2018-04-14T01:53:53.641Z,0
2018-04-14T01:54:55.027Z,0
2018-04-14T01:55:56.413Z,0
2018-04-14T01:56:57.800Z,0
2018-04-14T01:57:59.189Z,0
2018-04-14T01:59:00.580Z,0
2018-04-14T02:00:01.967Z,0
2018-04-14T02:01:03.358Z,0
2018-04-14T02:02:04.746Z,0
2018-04-14T02:03:06.126Z,0
2018-04-14T02:04:07.565Z,0
2018-04-14T02:05:08.908Z,0
2018-04-14T02:06:10.297Z,0
2018-04-14T02:07:11.684Z,0
2018-04-14T02:08:13.074Z,0
2018-04-14T02:09:14.462Z,0
2018-04-14T02:10:15.854Z,0
2018-04-14T02:11:17.237Z,0
2018-04-14T02:12:18.630Z,0
2018-04-14T02:13:20.020Z,0
2018-04-14T02:14:21.409Z,0
2018-04-14T02:15:22.795Z,0
2018-04-14T02:16:24.183Z,0
2018-04-14T02:17:25.570Z,0
2018-04-14T02:18:26.956Z,0
2018-04-14T02:19:28.347Z,0
2018-04-14T02:20:29.734Z,0
2018-04-14T02:21:31.126Z,0
2018-04-14T02:22:32.516Z,0
2018-04-14T02:23:33.901Z,0
2018-04-14T02:24:35.281Z,0
2018-04-14T02:25:36.704Z,0
2018-04-14T02:26:38.132Z,0
2018-04-14T02:27:39.521Z,0
2018-04-14T02:28:40.906Z,0
2018-04-14T02:29:42.296Z,0
2018-04-14T02:30:43.683Z,0
2018-04-14T02:31:45.072Z,0
2018-04-14T02:32:46.461Z,0
2018-04-14T02:33:47.846Z,0
2018-04-14T02:34:49.234Z,0
2018-04-14T02:35:50.624Z,0
2018-04-14T02:36:52.013Z,0
2018-04-14T02:37:53.396Z,0
2018-04-14T02:38:54.782Z,0
2018-04-14T02:39:56.170Z,0
2018-04-14T02:40:57.561Z,0
2018-04-14T02:41:58.948Z,0
2018-04-14T02:43:00.346Z,0
2018-04-14T02:44:01.733Z,0
2018-04-14T02:45:03.115Z,0
2018-04-14T02:46:04.500Z,0
2018-04-14T02:47:05.890Z,0
2018-04-14T02:48:07.277Z,0
2018-04-14T02:49:08.663Z,0
2018-04-14T02:50:10.057Z,0
2018-04-14T02:51:11.444Z,0
2018-04-14T02:52:12.842Z,0
2018-04-14T02:53:14.215Z,0
2018-04-14T02:54:15.602Z,0
2018-04-14T02:55:16.986Z,0
2018-04-14T02:56:18.375Z,0
2018-04-14T02:57:19.765Z,0
2018-04-14T02:58:21.153Z,0
2018-04-14T02:59:22.540Z,0
2018-04-14T03:00:23.927Z,0
2018-04-14T03:01:25.313Z,0
2018-04-14T03:02:26.702Z,0
2018-04-14T03:03:28.091Z,0
2018-04-14T03:04:29.480Z,0
2018-04-14T03:05:30.870Z,0
2018-04-14T03:06:32.262Z,0
2018-04-14T03:07:33.641Z,0
2018-04-14T03:08:35.033Z,0
2018-04-14T03:09:36.414Z,0
2018-04-14T03:10:37.803Z,0
2018-04-14T03:11:39.193Z,0
2018-04-14T03:12:40.579Z,0
2018-04-14T03:13:41.964Z,0
2018-04-14T03:14:43.354Z,0
2018-04-14T03:15:44.744Z,0
2018-04-14T03:16:46.200Z,0
2018-04-14T03:17:47.645Z,0
2018-04-14T03:18:49.029Z,0
2018-04-14T03:19:50.416Z,0
2018-04-14T03:20:51.803Z,0
2018-04-14T03:21:53.193Z,0
2018-04-14T03:22:54.578Z,0
2018-04-14T03:23:55.965Z,0
2018-04-14T03:24:57.352Z,0
2018-04-14T03:25:58.740Z,0
2018-04-14T03:27:00.128Z,0
2018-04-14T03:28:01.512Z,0
2018-04-14T03:29:02.899Z,0
2018-04-14T03:30:04.285Z,0
2018-04-14T03:31:05.675Z,0
2018-04-14T03:32:07.061Z,0
2018-04-14T03:33:08.448Z,0
2018-04-14T03:34:09.836Z,0
2018-04-14T03:35:11.218Z,0
2018-04-14T03:36:12.604Z,0
2018-04-14T03:37:13.990Z,0
2018-04-14T03:38:15.381Z,0
2018-04-14T03:39:16.766Z,0
2018-04-14T03:40:18.155Z,0
2018-04-14T03:41:19.551Z,0
2018-04-14T03:42:20.928Z,0
2018-04-14T03:43:22.309Z,0
2018-04-14T03:44:23.696Z,0
2018-04-14T03:45:25.081Z,0
2018-04-14T03:46:26.467Z,0
2018-04-14T03:47:27.859Z,0
2018-04-14T03:48:29.246Z,0
2018-04-14T03:49:30.629Z,0
2018-04-14T03:50:32.015Z,0
2018-04-14T03:51:33.404Z,0
2018-04-14T03:52:34.783Z,0
2018-04-14T03:53:36.169Z,0
2018-04-14T03:54:37.558Z,0
2018-04-14T03:55:38.946Z,0
2018-04-14T03:56:40.332Z,0
2018-04-14T03:57:41.717Z,0
2018-04-14T03:58:43.102Z,0
2018-04-14T03:59:44.489Z,0
2018-04-14T04:00:45.875Z,0
2018-04-14T04:01:47.264Z,0
2018-04-14T04:02:48.651Z,0
2018-04-14T04:03:50.037Z,0
2018-04-14T04:04:51.419Z,0
2018-04-14T04:05:52.806Z,0
2018-04-14T04:06:54.192Z,0
2018-04-14T04:07:55.639Z,0
2018-04-14T04:08:57.054Z,0
2018-04-14T04:09:58.442Z,0
2018-04-14T04:10:59.833Z,0
2018-04-14T04:12:01.217Z,0
2018-04-14T04:13:02.608Z,0
2018-04-14T04:14:03.989Z,0
2018-04-14T04:15:05.375Z,0
2018-04-14T04:16:06.762Z,4
2018-04-14T04:17:08.155Z,4
2018-04-14T04:18:09.538Z,0
2018-04-14T04:19:10.924Z,0
2018-04-14T04:20:12.311Z,0
2018-04-14T04:21:13.701Z,4
2018-04-14T04:22:15.091Z,4
2018-04-14T04:23:16.486Z,4
2018-04-14T04:24:17.872Z,4
2018-04-14T04:25:19.257Z,8
2018-04-14T04:26:20.649Z,4
2018-04-14T04:27:22.038Z,8
2018-04-14T04:28:23.427Z,8
2018-04-14T04:29:24.811Z,8
2018-04-14T04:30:26.202Z,12
2018-04-14T04:31:27.593Z,12
2018-04-14T04:32:28.982Z,12
2018-04-14T04:33:30.372Z,16
2018-04-14T04:34:31.765Z,20
2018-04-14T04:35:33.151Z,24
2018-04-14T04:36:34.544Z,24
2018-04-14T04:37:35.933Z,28
2018-04-14T04:38:37.319Z,32
2018-04-14T04:39:38.708Z,36
2018-04-14T04:40:40.112Z,40
2018-04-14T04:41:41.501Z,44
2018-04-14T04:42:42.888Z,52
2018-04-14T04:43:44.277Z,56
2018-04-14T04:44:45.670Z,64
2018-04-14T04:45:47.060Z,68
2018-04-14T04:46:48.446Z,72
2018-04-14T04:47:49.840Z,76
2018-04-14T04:48:51.271Z,80
2018-04-14T04:49:52.612Z,88
2018-04-14T04:50:54.001Z,92
2018-04-14T04:51:55.388Z,96
2018-04-14T04:52:56.783Z,100
2018-04-14T04:53:58.181Z,104
2018-04-14T04:54:59.567Z,100
2018-04-14T04:56:00.954Z,96
2018-04-14T04:57:02.345Z,104
2018-04-14T04:58:03.736Z,116
2018-04-14T04:59:05.181Z,124
2018-04-14T05:00:06.577Z,140
2018-04-14T05:01:07.968Z,148
2018-04-14T05:02:09.356Z,160
2018-04-14T05:03:10.752Z,172
2018-04-14T05:04:12.143Z,184
2018-04-14T05:05:13.533Z,188
2018-04-14T05:06:14.927Z,192
2018-04-14T05:07:16.321Z,208
2018-04-14T05:08:17.710Z,220
2018-04-14T05:09:19.104Z,236
2018-04-14T05:10:20.491Z,248
2018-04-14T05:11:21.883Z,260
2018-04-14T05:12:23.274Z,276
2018-04-14T05:13:24.690Z,288
2018-04-14T05:14:26.061Z,304
2018-04-14T05:15:27.449Z,320
2018-04-14T05:16:28.845Z,324
2018-04-14T05:17:30.232Z,328
2018-04-14T05:18:31.624Z,332
2018-04-14T05:19:33.014Z,336
2018-04-14T05:20:34.406Z,348
2018-04-14T05:21:35.797Z,376
2018-04-14T05:22:37.200Z,400
2018-04-14T05:23:38.590Z,408
2018-04-14T05:24:39.982Z,404
2018-04-14T05:25:41.374Z,408
2018-04-14T05:26:42.765Z,432
2018-04-14T05:27:44.157Z,452
2018-04-14T05:28:45.551Z,448
2018-04-14T05:29:46.942Z,444
2018-04-14T05:30:48.333Z,456
2018-04-14T05:31:49.727Z,460
2018-04-14T05:32:51.114Z,464
2018-04-14T05:33:52.507Z,472
2018-04-14T05:34:53.899Z,480
2018-04-14T05:35:55.292Z,496
2018-04-14T05:36:56.690Z,552
2018-04-14T05:37:58.083Z,612
2018-04-14T05:38:59.481Z,644
2018-04-14T05:40:00.873Z,652
2018-04-14T05:41:02.262Z,652
2018-04-14T05:42:03.665Z,672
2018-04-14T05:43:05.053Z,724
2018-04-14T05:44:06.442Z,760
2018-04-14T05:45:07.830Z,780
2018-04-14T05:46:09.223Z,768
2018-04-14T05:47:10.614Z,764
2018-04-14T05:48:12.010Z,788
2018-04-14T05:49:13.472Z,836
2018-04-14T05:50:14.865Z,852
2018-04-14T05:51:16.255Z,888
2018-04-14T05:52:17.647Z,900
2018-04-14T05:53:19.037Z,912
2018-04-14T05:54:20.427Z,940
2018-04-14T05:55:21.818Z,968
2018-04-14T05:56:23.213Z,988
2018-04-14T05:57:24.606Z,1020
2018-04-14T05:58:25.999Z,1076
2018-04-14T05:59:27.390Z,1104
2018-04-14T06:00:28.789Z,1100
2018-04-14T06:01:30.179Z,1096
2018-04-14T06:02:31.577Z,1044
2018-04-14T06:03:32.966Z,996
2018-04-14T06:04:34.370Z,948
2018-04-14T06:05:35.761Z,920
2018-04-14T06:06:37.153Z,908
2018-04-14T06:07:38.546Z,920
2018-04-14T06:08:39.938Z,960
2018-04-14T06:09:41.336Z,1012
2018-04-14T06:10:42.719Z,1056
2018-04-14T06:11:44.116Z,1100
2018-04-14T06:12:45.509Z,1116
2018-04-14T06:13:46.905Z,1136
2018-04-14T06:14:48.293Z,1156
2018-04-14T06:15:49.686Z,1172
2018-04-14T06:16:51.087Z,1172
2018-04-14T06:17:52.480Z,1160
2018-04-14T06:18:53.877Z,1152
2018-04-14T06:19:55.266Z,1140
2018-04-14T06:20:56.661Z,1136
2018-04-14T06:21:58.054Z,1172
2018-04-14T06:22:59.443Z,1228
2018-04-14T06:24:00.842Z,1264
2018-04-14T06:25:02.232Z,1280
2018-04-14T06:26:03.629Z,1292
2018-04-14T06:27:05.022Z,1300
2018-04-14T06:28:06.418Z,1304
2018-04-14T06:29:07.816Z,1308
2018-04-14T06:30:09.197Z,1304
2018-04-14T06:31:10.594Z,1312
2018-04-14T06:32:11.991Z,1324
2018-04-14T06:33:13.387Z,1344
2018-04-14T06:34:14.780Z,1364
2018-04-14T06:35:16.175Z,1380
2018-04-14T06:36:17.566Z,1384
2018-04-14T06:37:18.961Z,1396
2018-04-14T06:38:20.442Z,1408
2018-04-14T06:39:21.837Z,1428
2018-04-14T06:40:23.326Z,1448
2018-04-14T06:41:24.722Z,1464
2018-04-14T06:42:26.118Z,1472
2018-04-14T06:43:27.537Z,1476
2018-04-14T06:44:28.927Z,1484
2018-04-14T06:45:30.318Z,1492
2018-04-14T06:46:31.709Z,1504
2018-04-14T06:47:33.113Z,1516
2018-04-14T06:48:34.509Z,1532
2018-04-14T06:49:35.913Z,1544
2018-04-14T06:50:37.305Z,1556
2018-04-14T06:51:38.697Z,1552
2018-04-14T06:52:40.090Z,1556
2018-04-14T06:53:41.484Z,1556
2018-04-14T06:54:42.885Z,1564
2018-04-14T06:55:44.274Z,1568
2018-04-14T06:56:45.668Z,1580
2018-04-14T06:57:47.057Z,1588
2018-04-14T06:58:48.449Z,1592
2018-04-14T06:59:49.845Z,1608
2018-04-14T07:00:51.237Z,1624
2018-04-14T07:01:52.635Z,1632
2018-04-14T07:02:54.028Z,1648
2018-04-14T07:03:55.422Z,1664
2018-04-14T07:04:56.859Z,1680
2018-04-14T07:05:58.215Z,1692
2018-04-14T07:06:59.612Z,1712
2018-04-14T07:08:01.001Z,1736
2018-04-14T07:09:02.406Z,1764
2018-04-14T07:10:03.799Z,1792
2018-04-14T07:11:05.188Z,1828
2018-04-14T07:12:06.580Z,1860
2018-04-14T07:13:07.973Z,1888
2018-04-14T07:14:09.366Z,1916
2018-04-14T07:15:10.767Z,1936
2018-04-14T07:16:12.167Z,1960
2018-04-14T07:17:13.557Z,1980
2018-04-14T07:18:14.952Z,2012
2018-04-14T07:19:16.340Z,2032
2018-04-14T07:20:17.736Z,2048
2018-04-14T07:21:19.132Z,2064
2018-04-14T07:22:20.528Z,2092
2018-04-14T07:23:21.928Z,2104
2018-04-14T07:24:23.316Z,2100
2018-04-14T07:25:24.708Z,2108
2018-04-14T07:26:26.112Z,2120
2018-04-14T07:27:27.503Z,2132
2018-04-14T07:28:28.896Z,2156
2018-04-14T07:29:30.292Z,2184
2018-04-14T07:30:31.766Z,2200
2018-04-14T07:31:33.173Z,2212
2018-04-14T07:32:34.565Z,2244
2018-04-14T07:33:35.958Z,2268
2018-04-14T07:34:37.351Z,2292
2018-04-14T07:35:38.745Z,2304
2018-04-14T07:36:40.138Z,2316
2018-04-14T07:37:41.533Z,2292
2018-04-14T07:38:42.944Z,2344
2018-04-14T07:39:44.336Z,2384
2018-04-14T07:40:45.732Z,2436
2018-04-14T07:41:47.126Z,2464
2018-04-14T07:42:48.521Z,2488
2018-04-14T07:43:49.917Z,2512
2018-04-14T07:44:51.313Z,2536
2018-04-14T07:45:52.706Z,2556
2018-04-14T07:46:54.099Z,2580
2018-04-14T07:47:55.494Z,2620
2018-04-14T07:48:56.887Z,2652
2018-04-14T07:49:58.286Z,2684
2018-04-14T07:50:59.678Z,2704
2018-04-14T07:52:01.076Z,2728
2018-04-14T07:53:02.473Z,2768
2018-04-14T07:54:03.866Z,2824
2018-04-14T07:55:05.263Z,2856
2018-04-14T07:56:06.651Z,2880
2018-04-14T07:57:08.046Z,2928
2018-04-14T07:58:09.442Z,2980
2018-04-14T07:59:10.839Z,3016
2018-04-14T08:00:12.231Z,3084
2018-04-14T08:01:13.625Z,3108
2018-04-14T08:02:15.020Z,3032
2018-04-14T08:03:16.415Z,2920
2018-04-14T08:04:17.810Z,3116
2018-04-14T08:05:19.207Z,3188
2018-04-14T08:06:20.606Z,3288
2018-04-14T08:07:22.003Z,3188
2018-04-14T08:08:23.401Z,3336
2018-04-14T08:09:24.798Z,3164
2018-04-14T08:10:26.189Z,3204
2018-04-14T08:11:27.601Z,3200
2018-04-14T08:12:28.996Z,2772
2018-04-14T08:13:30.394Z,3152
2018-04-14T08:14:31.788Z,3768
2018-04-14T08:15:33.185Z,3316
2018-04-14T08:16:34.576Z,3776
2018-04-14T08:17:35.969Z,4004
2018-04-14T08:18:37.371Z,4100
2018-04-14T08:19:38.837Z,4136
2018-04-14T08:20:40.332Z,4268
2018-04-14T08:21:41.730Z,4116
2018-04-14T08:22:43.135Z,4200
2018-04-14T08:23:44.532Z,4384
2018-04-14T08:24:45.942Z,3984
2018-04-14T08:25:47.324Z,4184
2018-04-14T08:26:48.721Z,4436
2018-04-14T08:27:50.119Z,4820
2018-04-14T08:28:51.514Z,4920
2018-04-14T08:29:52.918Z,5024
2018-04-14T08:30:54.318Z,5148
2018-04-14T08:31:55.706Z,5172
2018-04-14T08:32:57.102Z,5224
2018-04-14T08:33:58.497Z,5268
2018-04-14T08:34:59.897Z,5384
2018-04-14T08:36:01.294Z,5480
2018-04-14T08:37:02.688Z,5620
2018-04-14T08:38:04.090Z,5736
2018-04-14T08:39:05.486Z,5828
2018-04-14T08:40:06.880Z,5916
2018-04-14T08:41:08.276Z,6068
2018-04-14T08:42:09.678Z,6208
2018-04-14T08:43:11.075Z,6356
2018-04-14T08:44:12.466Z,6332
2018-04-14T08:45:13.864Z,6228
2018-04-14T08:46:15.262Z,5632
2018-04-14T08:47:16.670Z,5424
2018-04-14T08:48:18.052Z,6656
2018-04-14T08:49:19.452Z,4948
2018-04-14T08:50:20.846Z,6732
2018-04-14T08:51:22.240Z,6976
2018-04-14T08:52:23.638Z,7424
2018-04-14T08:53:25.035Z,7356
2018-04-14T08:54:26.431Z,5836
2018-04-14T08:55:27.832Z,6348
2018-04-14T08:56:29.231Z,7292
2018-04-14T08:57:30.625Z,7248
2018-04-14T08:58:32.019Z,9388
2018-04-14T08:59:33.418Z,10420
2018-04-14T09:00:34.814Z,10396
2018-04-14T09:01:36.218Z,9132
2018-04-14T09:02:37.610Z,7616
2018-04-14T09:03:39.012Z,8716
2018-04-14T09:04:40.405Z,8660
2018-04-14T09:05:41.818Z,8704
2018-04-14T09:06:43.214Z,8680
2018-04-14T09:07:44.613Z,8428
2018-04-14T09:08:46.098Z,8124
2018-04-14T09:09:47.513Z,8316
2018-04-14T09:10:48.912Z,7696
2018-04-14T09:11:50.310Z,8160
2018-04-14T09:12:51.717Z,8004
2018-04-14T09:13:53.107Z,8492
2018-04-14T09:14:54.507Z,8096
2018-04-14T09:15:55.906Z,8780
2018-04-14T09:16:57.306Z,9332
2018-04-14T09:17:58.707Z,9500
2018-04-14T09:19:00.104Z,9524
2018-04-14T09:20:01.502Z,8760
2018-04-14T09:21:02.900Z,7580
2018-04-14T09:22:04.300Z,6780
2018-04-14T09:23:05.701Z,7040
2018-04-14T09:24:07.106Z,6560
2018-04-14T09:25:08.508Z,6920
2018-04-14T09:26:09.903Z,7192
2018-04-14T09:27:11.305Z,8092
2018-04-14T09:28:12.726Z,6568
2018-04-14T09:29:14.120Z,9332
2018-04-14T09:30:15.520Z,9468
2018-04-14T09:31:16.918Z,9560
2018-04-14T09:32:18.318Z,9960
2018-04-14T09:33:19.717Z,10576
2018-04-14T09:34:21.126Z,10708
2018-04-14T09:35:22.519Z,10984
2018-04-14T09:36:23.917Z,11064
2018-04-14T09:37:25.316Z,11092
2018-04-14T09:38:26.716Z,11312
2018-04-14T09:39:28.131Z,11420
2018-04-14T09:40:29.533Z,10980
2018-04-14T09:41:30.930Z,9460
2018-04-14T09:42:32.326Z,9180
2018-04-14T09:43:33.723Z,10576
2018-04-14T09:44:35.124Z,11644
2018-04-14T09:45:36.522Z,11860
2018-04-14T09:46:37.932Z,11736
2018-04-14T09:47:39.331Z,11388
2018-04-14T09:48:40.727Z,11176
2018-04-14T09:49:42.128Z,10120
2018-04-14T09:50:43.526Z,7228
2018-04-14T09:51:44.927Z,8268
2018-04-14T09:52:46.323Z,5136
2018-04-14T09:53:47.729Z,5104
2018-04-14T09:54:49.127Z,5008
2018-04-14T09:55:50.523Z,5284
2018-04-14T09:56:51.990Z,4748
2018-04-14T09:57:53.569Z,4648
2018-04-14T09:58:54.971Z,5252
2018-04-14T09:59:56.372Z,6688
2018-04-14T10:00:57.818Z,9844
2018-04-14T10:01:59.218Z,11272
2018-04-14T10:03:00.710Z,12956
2018-04-14T10:04:02.016Z,13064
2018-04-14T10:05:03.419Z,13224
2018-04-14T10:06:04.823Z,12820
2018-04-14T10:07:06.221Z,12684
2018-04-14T10:08:07.635Z,12544
2018-04-14T10:09:09.039Z,12376
2018-04-14T10:10:10.441Z,12512
2018-04-14T10:11:11.842Z,13060
2018-04-14T10:12:13.241Z,12772
2018-04-14T10:13:14.643Z,12684
2018-04-14T10:14:16.042Z,12804
2018-04-14T10:15:17.476Z,12260
2018-04-14T10:16:18.916Z,13244
2018-04-14T10:17:20.271Z,13780
2018-04-14T10:18:21.672Z,12900
2018-04-14T10:19:23.071Z,12316
2018-04-14T10:20:24.479Z,13092
2018-04-14T10:21:25.879Z,14240
2018-04-14T10:22:27.279Z,15164
2018-04-14T10:23:28.676Z,15304
2018-04-14T10:24:30.073Z,15644
2018-04-14T10:25:31.472Z,16072
2018-04-14T10:26:32.880Z,16672
2018-04-14T10:27:34.284Z,17344
2018-04-14T10:28:35.686Z,17248
2018-04-14T10:29:37.088Z,18336
2018-04-14T10:30:38.483Z,18848
2018-04-14T10:31:39.885Z,19264
2018-04-14T10:32:41.288Z,18880
2018-04-14T10:33:42.696Z,19520
2018-04-14T10:34:44.092Z,21184
2018-04-14T10:35:45.493Z,21280
2018-04-14T10:36:46.896Z,21632
2018-04-14T10:37:48.375Z,22112
2018-04-14T10:38:49.696Z,21760
2018-04-14T10:39:51.099Z,21504
2018-04-14T10:40:52.500Z,22048
2018-04-14T10:41:53.901Z,22368
2018-04-14T10:42:55.303Z,22944
2018-04-14T10:43:56.756Z,23712
2018-04-14T10:44:58.139Z,22784
2018-04-14T10:45:59.552Z,21408
2018-04-14T10:47:00.955Z,19616
2018-04-14T10:48:02.376Z,20416
2018-04-14T10:49:03.786Z,20640
2018-04-14T10:50:05.208Z,20736
2018-04-14T10:51:06.590Z,15608
2018-04-14T10:52:07.999Z,19552
2018-04-14T10:53:09.391Z,21856
2018-04-14T10:54:10.796Z,22208
2018-04-14T10:55:12.200Z,21632
2018-04-14T10:56:13.599Z,19744
2018-04-14T10:57:15.003Z,19488
2018-04-14T10:58:16.411Z,20224
2018-04-14T10:59:17.811Z,20448
2018-04-14T11:00:19.211Z,19680
2018-04-14T11:01:20.622Z,19296
2018-04-14T11:02:22.018Z,20064
2018-04-14T11:03:23.422Z,19168
2018-04-14T11:04:24.830Z,17184
2018-04-14T11:05:26.229Z,11528
2018-04-14T11:06:27.629Z,8788
2018-04-14T11:07:29.028Z,7708
2018-04-14T11:08:30.432Z,17664
2018-04-14T11:09:31.833Z,17152
2018-04-14T11:10:33.237Z,9824
2018-04-14T11:11:34.637Z,8004
2018-04-14T11:12:36.044Z,13424
2018-04-14T11:13:37.476Z,13084
2018-04-14T11:14:38.877Z,11284
2018-04-14T11:15:40.325Z,11872
2018-04-14T11:16:41.731Z,18848
2018-04-14T11:17:43.138Z,20192
2018-04-14T11:18:44.541Z,20064
2018-04-14T11:19:45.940Z,19936
2018-04-14T11:20:47.340Z,19616
2018-04-14T11:21:48.743Z,19808
2018-04-14T11:22:50.145Z,19104
2018-04-14T11:23:51.547Z,19872
2018-04-14T11:24:52.961Z,19360
2018-04-14T11:25:54.361Z,19904
2018-04-14T11:26:55.765Z,18368
2018-04-14T11:27:57.165Z,18848
2018-04-14T11:28:58.570Z,17984
2018-04-14T11:29:59.974Z,18144
2018-04-14T11:31:01.380Z,14976
2018-04-14T11:32:02.841Z,13764
2018-04-14T11:33:04.333Z,12940
2018-04-14T11:34:05.738Z,12208
2018-04-14T11:35:07.138Z,10824
2018-04-14T11:36:08.541Z,20288
2018-04-14T11:37:09.942Z,20960
2018-04-14T11:38:11.345Z,17984
2018-04-14T11:39:12.751Z,18528
2018-04-14T11:40:14.156Z,21536
2018-04-14T11:41:15.562Z,21472
2018-04-14T11:42:16.964Z,18656
2018-04-14T11:43:18.366Z,14056
2018-04-14T11:44:19.766Z,20832
2018-04-14T11:45:21.171Z,19008
2018-04-14T11:46:22.596Z,15120
2018-04-14T11:47:24.003Z,16608
2018-04-14T11:48:25.403Z,9616
2018-04-14T11:49:26.811Z,10520
2018-04-14T11:50:28.212Z,18880
2018-04-14T11:51:29.610Z,18304
2018-04-14T11:52:31.013Z,13200
2018-04-14T11:53:32.427Z,13728
2018-04-14T11:54:33.829Z,17920
2018-04-14T11:55:35.233Z,16224
2018-04-14T11:56:36.640Z,18848
2018-04-14T11:57:38.041Z,18272
2018-04-14T11:58:39.446Z,22080
2018-04-14T11:59:40.847Z,21536
2018-04-14T12:00:43.215Z,21888
2018-04-14T12:01:44.617Z,21440
2018-04-14T12:02:46.019Z,17056
2018-04-14T12:03:47.424Z,16192
2018-04-14T12:04:48.822Z,17408
2018-04-14T12:05:50.229Z,18880
2018-04-14T12:06:51.630Z,19232
2018-04-14T12:07:53.039Z,19552
2018-04-14T12:08:54.444Z,20288
2018-04-14T12:09:55.873Z,20544
2018-04-14T12:10:57.250Z,20640
2018-04-14T12:11:58.651Z,21152
2018-04-14T12:13:00.056Z,20448
2018-04-14T12:14:01.460Z,20512
2018-04-14T12:15:02.911Z,19200
2018-04-14T12:16:04.270Z,19392
2018-04-14T12:17:05.675Z,20096
2018-04-14T12:18:07.112Z,17952
2018-04-14T12:19:08.533Z,18592
2018-04-14T12:20:09.935Z,15104
2018-04-14T12:21:11.344Z,12984
2018-04-14T12:22:12.748Z,13940
2018-04-14T12:23:14.151Z,18304
2018-04-14T12:24:15.559Z,17632
2018-04-14T12:25:16.958Z,16832
2018-04-14T12:26:18.363Z,16640
2018-04-14T12:27:19.765Z,18496
2018-04-14T12:28:21.194Z,13964
2018-04-14T12:29:22.602Z,10204
2018-04-14T12:30:24.007Z,9628
2018-04-14T12:31:25.409Z,8644
2018-04-14T12:32:26.814Z,6404
2018-04-14T12:33:28.225Z,6448
2018-04-14T12:34:29.630Z,6804
2018-04-14T12:35:31.025Z,8936
2018-04-14T12:36:32.429Z,13720
2018-04-14T12:37:33.832Z,15616
2018-04-14T12:38:35.237Z,16448
2018-04-14T12:39:36.637Z,14904
2018-04-14T12:40:38.040Z,15808
2018-04-14T12:41:39.446Z,17024
2018-04-14T12:42:40.846Z,17344
2018-04-14T12:43:42.246Z,17984
2018-04-14T12:44:43.652Z,11228
2018-04-14T12:45:45.061Z,14620
2018-04-14T12:46:46.459Z,17088
2018-04-14T12:47:47.862Z,17696
2018-04-14T12:48:49.262Z,15012
2018-04-14T12:49:50.670Z,18048
2018-04-14T12:50:52.114Z,16512
2018-04-14T12:51:53.513Z,13012
2018-04-14T12:52:54.920Z,11736
2018-04-14T12:53:56.320Z,7092
2018-04-14T12:54:57.722Z,9968
2018-04-14T12:55:59.158Z,11640
2018-04-14T12:57:00.593Z,4540
2018-04-14T12:58:02.044Z,2912
2018-04-14T12:59:03.360Z,2520
2018-04-14T13:00:04.765Z,2384
2018-04-14T13:01:06.166Z,2176
2018-04-14T13:02:07.571Z,2044
2018-04-14T13:03:08.973Z,1936
2018-04-14T13:04:10.378Z,1864
2018-04-14T13:05:11.777Z,1884
2018-04-14T13:06:13.267Z,1924
2018-04-14T13:07:14.671Z,2008
2018-04-14T13:08:16.068Z,2056
2018-04-14T13:09:17.469Z,2092
2018-04-14T13:10:18.871Z,2100
2018-04-14T13:11:20.273Z,2116
2018-04-14T13:12:21.672Z,2128
2018-04-14T13:13:23.072Z,2168
2018-04-14T13:14:24.484Z,2256
2018-04-14T13:15:25.877Z,2460
2018-04-14T13:16:21.123Z,2728
2018-04-14T13:17:22.536Z,3316
2018-04-14T13:18:23.932Z,4412
2018-04-14T13:19:25.332Z,14752
2018-04-14T13:20:26.765Z,9892
2018-04-14T13:21:28.163Z,8884
2018-04-14T13:22:29.564Z,13564
2018-04-14T13:23:31.054Z,15616
2018-04-14T13:24:32.335Z,14248
2018-04-14T13:25:33.735Z,14864
2018-04-14T13:26:35.137Z,15232
2018-04-14T13:27:36.537Z,13900
2018-04-14T13:28:37.943Z,8308
2018-04-14T13:29:39.345Z,8524
2018-04-14T13:30:40.746Z,6900
2018-04-14T13:31:43.469Z,6028
2018-04-14T13:32:44.852Z,5592
2018-04-14T13:33:46.251Z,5108
2018-04-14T13:34:47.675Z,4884
2018-04-14T13:35:49.075Z,4908
2018-04-14T13:36:50.479Z,5104
2018-04-14T13:37:51.880Z,4848
2018-04-14T13:38:53.280Z,4800
2018-04-14T13:39:54.678Z,4744
2018-04-14T13:40:56.079Z,4712
2018-04-14T13:41:57.482Z,4592
2018-04-14T13:42:58.884Z,4584
2018-04-14T13:44:00.285Z,4832
2018-04-14T13:45:01.688Z,5196
2018-04-14T13:46:03.092Z,4952
2018-04-14T13:47:04.491Z,4796
2018-04-14T13:48:05.891Z,4820
2018-04-14T13:49:07.297Z,4928
2018-04-14T13:50:08.706Z,5080
2018-04-14T13:51:10.198Z,9140
2018-04-14T13:52:11.595Z,6096
2018-04-14T13:53:12.998Z,6000
2018-04-14T13:54:14.400Z,5336
2018-04-14T13:55:15.799Z,5060
2018-04-14T13:56:17.202Z,5476
2018-04-14T13:57:18.610Z,6556
2018-04-14T13:58:20.007Z,6624
2018-04-14T13:59:21.412Z,7112
2018-04-14T14:00:22.817Z,8516
2018-04-14T14:01:24.309Z,10288